Time;durP1;ratioP1;P1;durP2;ratioP2;P2;SDS_P1;SDS_P2;PMS_P1;PMS_P2;Temp;Humidity;BMP_temperature;BMP_pressure;BME280_temperature;BME280_humidity;BME280_pressure;Samples;Min_cycle;Max_cycle;Signal;HPM_P1;HPM_P2
2022/12/21 00:01:12;;;;;;;45.77;41.77;;;6.50;99.90;;;;;;6211968;23;20416;-77
2022/12/21 00:03:38;;;;;;;45.43;41.53;;;6.50;99.90;;;;;;6211774;23;20419;-78
2022/12/21 00:06:06;;;;;;;43.60;40.00;;;6.50;99.90;;;;;;6212098;23;20408;-77
2022/12/21 00:08:37;;;;;;;42.93;39.37;;;6.50;99.90;;;;;;6212366;23;20432;-77
2022/12/21 00:11:04;;;;;;;42.00;38.60;;;6.50;99.90;;;;;;6212245;23;20397;-76
2022/12/21 00:13:32;;;;;;;46.27;42.53;;;6.50;99.90;;;;;;6211994;23;20417;-76
2022/12/21 00:16:00;;;;;;;46.03;41.93;;;6.50;99.90;;;;;;6211786;23;20444;-75
2022/12/21 00:18:27;;;;;;;44.33;40.80;;;6.50;99.90;;;;;;6212943;23;20896;-76
2022/12/21 00:21:01;;;;;;;44.33;40.63;;;6.50;99.90;;;;;;6213770;23;20416;-76
2022/12/21 00:23:28;;;;;;;45.90;42.17;;;6.50;99.90;;;;;;6213890;23;20391;-76
2022/12/21 00:25:58;;;;;;;47.53;43.30;;;6.50;99.90;;;;;;6213655;23;20412;-76
2022/12/21 00:28:25;;;;;;;44.63;41.13;;;6.50;99.90;;;;;;6213467;23;20459;-76
2022/12/21 00:30:51;;;;;;;48.10;43.60;;;6.50;99.90;;;;;;6213747;23;20419;-76
2022/12/21 00:33:18;;;;;;;46.27;42.30;;;6.50;99.90;;;;;;6211817;23;20736;-75
2022/12/21 00:35:49;;;;;;;46.37;42.47;;;6.50;99.90;;;;;;6213024;23;20440;-76
2022/12/21 00:38:16;;;;;;;47.43;43.47;;;6.40;99.90;;;;;;6210410;23;20444;-76
2022/12/21 00:40:43;;;;;;;45.50;41.80;;;6.40;99.90;;;;;;6212943;23;20393;-76
2022/12/21 00:43:12;;;;;;;46.60;42.90;;;6.40;99.90;;;;;;6213153;23;20409;-77
2022/12/21 00:45:39;;;;;;;44.67;40.97;;;6.40;99.90;;;;;;6213303;23;20408;-77
2022/12/21 00:48:06;;;;;;;47.13;43.23;;;6.50;99.90;;;;;;6213223;23;20419;-77
2022/12/21 00:50:34;;;;;;;46.93;43.13;;;6.50;99.90;;;;;;6212794;23;20409;-78
2022/12/21 00:53:00;;;;;;;47.27;43.57;;;6.60;99.90;;;;;;6213193;23;20413;-81
2022/12/21 00:55:27;;;;;;;47.27;43.23;;;6.60;99.90;;;;;;6213290;23;20788;-83
2022/12/21 00:57:54;;;;;;;46.80;42.83;;;6.60;99.90;;;;;;6212684;23;20480;-80
2022/12/21 01:00:22;;;;;;;46.93;42.83;;;6.70;99.90;;;;;;6213524;23;20731;-79
2022/12/21 01:02:49;;;;;;;45.40;41.70;;;6.70;99.90;;;;;;6212878;23;20908;-79
2022/12/21 01:05:16;;;;;;;47.13;43.13;;;6.70;99.90;;;;;;6212586;23;20405;-77
2022/12/21 01:07:43;;;;;;;44.63;40.97;;;6.70;99.90;;;;;;6212775;23;20424;-79
2022/12/21 01:10:10;;;;;;;44.20;40.47;;;6.60;99.90;;;;;;6212990;23;20416;-80
2022/12/21 01:12:37;;;;;;;47.33;43.43;;;6.60;99.90;;;;;;6213181;23;20405;-80
2022/12/21 01:15:05;;;;;;;46.23;42.30;;;6.50;99.90;;;;;;6213017;23;20445;-80
2022/12/21 01:17:33;;;;;;;44.77;40.90;;;6.50;99.90;;;;;;6212958;23;20829;-78
2022/12/21 01:20:00;;;;;;;47.63;43.60;;;6.60;99.90;;;;;;6212589;23;20913;-80
2022/12/21 01:22:26;;;;;;;44.87;41.23;;;6.60;99.90;;;;;;6212698;23;20405;-78
2022/12/21 01:24:53;;;;;;;45.13;41.43;;;6.60;99.90;;;;;;6212818;23;20440;-76
2022/12/21 01:27:20;;;;;;;44.20;40.90;;;6.60;99.90;;;;;;6212851;23;20424;-77
2022/12/21 01:29:46;;;;;;;45.90;42.07;;;6.60;99.90;;;;;;6213327;23;20409;-78
2022/12/21 01:32:13;;;;;;;46.47;42.13;;;6.50;99.90;;;;;;6212507;23;20409;-79
2022/12/21 01:34:41;;;;;;;44.67;41.10;;;6.50;99.90;;;;;;6212788;23;20441;-79
2022/12/21 01:37:08;;;;;;;46.00;41.97;;;6.40;99.90;;;;;;6212462;23;20511;-76
2022/12/21 01:39:35;;;;;;;45.17;41.57;;;6.50;99.90;;;;;;6212715;23;20436;-79
2022/12/21 01:42:01;;;;;;;46.33;41.97;;;6.50;99.90;;;;;;6213407;23;20713;-76
2022/12/21 01:45:02;;;;;;;46.17;42.37;;;6.50;99.90;;;;;;6213737;23;20417;-76
2022/12/21 01:47:34;;;;;;;46.93;43.00;;;6.50;99.90;;;;;;6233379;23;20436;-76
2022/12/21 01:50:22;;;;;;;45.67;41.87;;;6.50;99.90;;;;;;6229074;23;20393;-76
2022/12/21 01:52:49;;;;;;;45.63;41.70;;;6.50;99.90;;;;;;6229670;23;20393;-75
2022/12/21 01:55:15;;;;;;;45.27;41.27;;;6.50;99.90;;;;;;6226793;23;20444;-76
2022/12/21 01:57:42;;;;;;;47.87;44.07;;;6.50;99.90;;;;;;6215437;23;20764;-75
2022/12/21 02:00:10;;;;;;;44.30;40.50;;;6.50;99.90;;;;;;6212770;23;20408;-75
2022/12/21 02:02:40;;;;;;;45.87;41.87;;;6.50;99.90;;;;;;6212159;23;20415;-75
2022/12/21 02:05:16;;;;;;;43.53;39.97;;;6.50;99.90;;;;;;6212661;23;20409;-75
2022/12/21 02:07:44;;;;;;;45.97;42.27;;;6.50;99.90;;;;;;6212100;23;20880;-75
2022/12/21 02:10:12;;;;;;;46.17;41.97;;;6.50;99.90;;;;;;6212268;23;20420;-76
2022/12/21 02:12:40;;;;;;;42.30;38.90;;;6.50;99.90;;;;;;6212343;23;20417;-77
2022/12/21 02:15:08;;;;;;;44.73;40.67;;;6.50;99.90;;;;;;6212358;23;20794;-78
2022/12/21 02:17:46;;;;;;;45.43;41.60;;;6.50;99.90;;;;;;6212465;23;20476;-79
2022/12/21 02:20:41;;;;;;;46.60;42.57;;;6.50;99.90;;;;;;6211888;23;20397;-76
2022/12/21 02:23:42;;;;;;;43.10;39.40;;;6.50;99.90;;;;;;6178104;23;20412;-78
2022/12/21 02:26:46;;;;;;;45.93;42.37;;;6.50;99.90;;;;;;6212463;23;20389;-83
2022/12/21 02:29:47;;;;;;;45.23;41.67;;;6.50;99.90;;;;;;6212177;23;20404;-82
2022/12/21 02:32:23;;;;;;;44.80;41.00;;;6.60;99.90;;;;;;6211783;23;20404;-85
2022/12/21 02:34:56;;;;;;;42.57;39.03;;;6.50;99.90;;;;;;6212233;23;20877;-83
2022/12/21 02:37:27;;;;;;;42.43;38.73;;;6.50;99.90;;;;;;6212223;23;20436;-82
2022/12/21 02:40:00;;;;;;;43.97;40.63;;;6.60;99.90;;;;;;6211454;23;20491;-82
2022/12/21 02:45:23;;;;;;;49.00;44.67;;;6.60;99.90;;;;;;6212281;23;20373;-80
2022/12/21 02:47:59;;;;;;;43.47;40.17;;;6.70;99.90;;;;;;6212380;23;20758;-79
2022/12/21 02:50:32;;;;;;;45.23;41.10;;;6.80;99.90;;;;;;6211687;23;20392;-81
2022/12/21 02:53:05;;;;;;;44.47;40.70;;;6.90;99.90;;;;;;6212224;23;20389;-81
2022/12/21 02:55:31;;;;;;;44.07;40.40;;;6.90;99.90;;;;;;6212214;23;20433;-81
2022/12/21 02:58:14;;;;;;;44.47;41.00;;;7.00;99.90;;;;;;6212206;23;20408;-82
2022/12/21 03:00:55;;;;;;;43.83;40.23;;;7.10;99.90;;;;;;6212342;23;20878;-82
2022/12/21 03:03:48;;;;;;;42.73;39.47;;;7.10;99.90;;;;;;6212328;23;20389;-82
2022/12/21 03:06:28;;;;;;;39.33;36.40;;;7.30;99.90;;;;;;6212658;23;20385;-82
2022/12/21 03:09:05;;;;;;;40.87;37.37;;;7.40;99.90;;;;;;6215140;23;20401;-84
2022/12/21 03:11:51;;;;;;;39.70;36.97;;;7.50;99.90;;;;;;6219431;23;20416;-83
2022/12/21 03:14:28;;;;;;;43.17;39.87;;;7.50;99.90;;;;;;6216194;23;20409;-85
2022/12/21 03:17:01;;;;;;;42.73;38.83;;;7.60;99.90;;;;;;6217055;23;20455;-85
2022/12/21 03:19:34;;;;;;;44.80;41.50;;;7.60;99.90;;;;;;6218447;23;20413;-84
2022/12/21 03:22:06;;;;;;;44.23;40.60;;;7.60;99.90;;;;;;6211653;23;21006;-84
2022/12/21 03:24:38;;;;;;;42.53;39.13;;;7.60;99.90;;;;;;6212197;23;20396;-83
2022/12/21 03:27:12;;;;;;;44.20;40.63;;;7.60;99.90;;;;;;6211648;23;20403;-82
2022/12/21 03:29:42;;;;;;;44.33;40.63;;;7.50;99.90;;;;;;6211506;23;20387;-82
2022/12/21 03:32:15;;;;;;;43.03;39.83;;;7.50;99.90;;;;;;6211598;23;20397;-85
2022/12/21 03:34:47;;;;;;;41.60;38.63;;;7.50;99.90;;;;;;6211822;23;20740;-85
2022/12/21 03:37:19;;;;;;;44.27;40.97;;;7.60;99.90;;;;;;6211085;23;20455;-86
2022/12/21 03:39:51;;;;;;;44.60;40.93;;;7.70;99.90;;;;;;6211082;23;20440;-83
2022/12/21 03:42:23;;;;;;;45.27;41.30;;;7.70;99.90;;;;;;6211519;23;20385;-85
2022/12/21 03:44:54;;;;;;;46.40;42.83;;;7.70;99.90;;;;;;6211608;23;20404;-85
2022/12/21 03:47:25;;;;;;;46.13;42.50;;;7.60;99.90;;;;;;6211962;23;20393;-85
2022/12/21 03:49:57;;;;;;;40.60;37.53;;;7.50;99.90;;;;;;6211148;23;20393;-83
2022/12/21 03:52:27;;;;;;;40.93;38.03;;;7.70;99.90;;;;;;6213317;23;20385;-83
2022/12/21 03:55:00;;;;;;;40.00;37.13;;;7.80;99.90;;;;;;6212407;23;20508;-83
2022/12/21 03:57:29;;;;;;;37.37;34.80;;;8.00;99.90;;;;;;6212392;23;20447;-82
2022/12/21 03:59:59;;;;;;;40.83;37.33;;;8.20;99.90;;;;;;6211889;23;20744;-83
2022/12/21 04:02:29;;;;;;;37.43;34.60;;;8.30;99.90;;;;;;6212564;23;20603;-82
2022/12/21 04:05:03;;;;;;;39.53;36.43;;;8.30;99.90;;;;;;6212135;23;20429;-83
2022/12/21 04:07:33;;;;;;;37.80;35.17;;;8.40;99.90;;;;;;6211803;23;20404;-81
2022/12/21 04:10:01;;;;;;;40.00;36.77;;;8.50;99.90;;;;;;6212277;23;20408;-82
2022/12/21 04:12:37;;;;;;;37.93;35.20;;;8.60;99.90;;;;;;6212469;23;20487;-84
2022/12/21 04:15:06;;;;;;;37.97;35.40;;;8.70;99.90;;;;;;6212051;23;20389;-86
2022/12/21 04:17:33;;;;;;;38.10;35.40;;;8.80;99.90;;;;;;6212663;23;20419;-83
2022/12/21 04:20:02;;;;;;;40.23;37.20;;;8.70;99.90;;;;;;6211888;23;20416;-84
2022/12/21 04:28:09;;;;;;;39.80;37.07;;;8.50;99.90;;;;;;6212003;23;20372;-83
2022/12/21 04:30:38;;;;;;;40.30;37.33;;;8.40;99.90;;;;;;6211678;23;20397;-82
2022/12/21 04:33:07;;;;;;;42.73;39.53;;;8.40;99.90;;;;;;6216781;23;20408;-83
2022/12/21 04:35:36;;;;;;;43.80;40.20;;;8.40;99.90;;;;;;6218363;23;20441;-84
2022/12/21 04:38:02;;;;;;;44.63;41.00;;;8.30;99.90;;;;;;6220660;23;20439;-82
2022/12/21 04:40:30;;;;;;;45.23;41.50;;;8.20;99.90;;;;;;6211914;23;20493;-82
2022/12/21 04:42:56;;;;;;;43.60;40.20;;;8.10;99.90;;;;;;6211513;23;20400;-81
2022/12/21 04:45:23;;;;;;;45.77;42.30;;;8.00;99.90;;;;;;6215053;23;20400;-87
2022/12/21 04:47:53;;;;;;;45.63;42.20;;;7.90;99.90;;;;;;6217777;23;20404;-82
2022/12/21 04:50:20;;;;;;;46.90;42.90;;;7.80;99.90;;;;;;6239779;23;20421;-84
2022/12/21 04:52:48;;;;;;;45.53;41.80;;;7.80;99.90;;;;;;6240031;23;20386;-87
2022/12/21 04:55:15;;;;;;;43.83;40.17;;;7.80;99.90;;;;;;6238975;23;20415;-84
2022/12/21 04:57:41;;;;;;;40.90;37.50;;;7.80;99.90;;;;;;6238284;23;20463;-86
2022/12/21 05:00:10;;;;;;;42.07;38.87;;;8.00;99.90;;;;;;6224280;23;20407;-84
2022/12/21 05:02:37;;;;;;;43.27;40.07;;;8.10;99.90;;;;;;6214605;23;20471;-85
2022/12/21 05:05:04;;;;;;;41.70;38.60;;;8.10;99.90;;;;;;6223726;23;20412;-80
2022/12/21 05:07:30;;;;;;;43.30;40.07;;;8.20;99.90;;;;;;6213301;23;20401;-80
2022/12/21 05:09:58;;;;;;;42.43;39.43;;;8.20;99.90;;;;;;6210415;23;20412;-81
2022/12/21 05:12:25;;;;;;;43.87;40.53;;;8.30;99.90;;;;;;6210233;23;20412;-81
2022/12/21 05:14:52;;;;;;;44.17;40.53;;;8.30;99.90;;;;;;6210598;23;20424;-81
2022/12/21 05:17:18;;;;;;;43.50;40.40;;;8.30;99.90;;;;;;6210488;23;20935;-80
2022/12/21 05:19:46;;;;;;;41.80;38.80;;;8.30;99.90;;;;;;6210795;23;20418;-80
2022/12/21 05:22:14;;;;;;;42.90;39.53;;;8.30;99.90;;;;;;6210525;23;20413;-79
2022/12/21 05:24:41;;;;;;;43.07;39.77;;;8.40;99.90;;;;;;6210635;23;20612;-79
2022/12/21 05:27:09;;;;;;;43.00;39.67;;;8.40;99.90;;;;;;6210683;23;20405;-81
2022/12/21 05:29:35;;;;;;;42.23;38.73;;;8.50;99.90;;;;;;6210636;23;20740;-79
2022/12/21 05:32:02;;;;;;;42.17;38.60;;;8.60;99.90;;;;;;6209950;23;20480;-80
2022/12/21 05:34:29;;;;;;;43.00;39.70;;;8.60;99.90;;;;;;6210525;23;20419;-81
2022/12/21 05:36:55;;;;;;;41.13;38.07;;;8.70;99.90;;;;;;6210083;23;21174;-80
2022/12/21 05:39:22;;;;;;;43.33;39.37;;;8.70;99.90;;;;;;6210174;23;20741;-80
2022/12/21 05:41:49;;;;;;;39.60;36.90;;;8.80;99.90;;;;;;6211420;23;20408;-81
2022/12/21 05:44:17;;;;;;;44.90;40.73;;;8.90;99.90;;;;;;6210952;23;20409;-80
2022/12/21 05:46:44;;;;;;;41.30;38.20;;;8.90;99.90;;;;;;6210545;23;20404;-77
2022/12/21 05:49:11;;;;;;;37.80;35.00;;;8.90;99.90;;;;;;6210387;23;20409;-77
2022/12/21 05:51:38;;;;;;;39.63;36.83;;;9.00;99.90;;;;;;6210380;23;20491;-78
2022/12/21 05:54:05;;;;;;;40.50;37.30;;;8.90;99.90;;;;;;6210717;23;20412;-78
2022/12/21 05:56:31;;;;;;;42.50;39.50;;;8.90;99.90;;;;;;6209835;23;20437;-81
2022/12/21 05:58:58;;;;;;;43.00;39.90;;;8.80;99.90;;;;;;6209947;23;20529;-81
2022/12/21 06:01:27;;;;;;;43.47;40.13;;;8.70;99.90;;;;;;6209549;23;20413;-81
2022/12/21 06:03:53;;;;;;;44.90;41.70;;;8.70;99.90;;;;;;6210201;23;20411;-82
2022/12/21 06:06:20;;;;;;;41.80;38.67;;;8.60;99.90;;;;;;6210734;23;20409;-80
2022/12/21 06:08:47;;;;;;;44.23;40.27;;;8.60;99.90;;;;;;6210726;23;20760;-82
2022/12/21 06:11:15;;;;;;;44.27;40.83;;;8.50;99.90;;;;;;6209733;23;20419;-82
2022/12/21 06:13:42;;;;;;;44.93;41.30;;;8.50;99.90;;;;;;6210371;23;20806;-82
2022/12/21 06:16:10;;;;;;;43.37;40.07;;;8.50;99.90;;;;;;6209730;23;20770;-79
2022/12/21 06:18:39;;;;;;;46.20;42.40;;;8.50;99.90;;;;;;6209893;23;20468;-80
2022/12/21 06:21:09;;;;;;;45.60;41.80;;;8.50;99.90;;;;;;6210368;23;20730;-80
2022/12/21 06:23:36;;;;;;;44.80;41.40;;;8.40;99.90;;;;;;6210745;23;20412;-83
2022/12/21 06:26:04;;;;;;;45.03;41.20;;;8.40;99.90;;;;;;6210586;23;20401;-83
2022/12/21 06:28:32;;;;;;;43.90;40.30;;;8.40;99.90;;;;;;6210771;23;20405;-81
2022/12/21 06:31:03;;;;;;;44.47;40.30;;;8.40;99.90;;;;;;6210547;23;20416;-83
2022/12/21 06:33:30;;;;;;;46.33;42.60;;;8.40;99.90;;;;;;6210890;23;20468;-80
2022/12/21 06:35:58;;;;;;;43.40;39.80;;;8.40;99.90;;;;;;6211690;23;20405;-82
2022/12/21 06:38:25;;;;;;;42.30;39.20;;;8.40;99.90;;;;;;6211039;23;20444;-82
2022/12/21 06:40:56;;;;;;;43.17;39.67;;;8.40;99.90;;;;;;6209784;23;20424;-76
2022/12/21 06:43:23;;;;;;;44.03;40.83;;;8.40;99.90;;;;;;6210601;23;20421;-79
2022/12/21 06:45:55;;;;;;;43.13;39.80;;;8.40;99.90;;;;;;6210731;23;20572;-79
2022/12/21 06:48:22;;;;;;;42.30;38.63;;;8.40;99.90;;;;;;6212173;23;20409;-79
2022/12/21 06:50:52;;;;;;;44.77;41.10;;;8.50;99.90;;;;;;6212972;23;20424;-79
2022/12/21 06:53:21;;;;;;;41.67;38.40;;;8.50;99.90;;;;;;6211501;23;20695;-77
2022/12/21 06:55:48;;;;;;;42.90;39.53;;;8.60;99.90;;;;;;6210957;23;20413;-79
2022/12/21 06:58:15;;;;;;;39.27;36.47;;;8.70;99.90;;;;;;6209768;23;20444;-78
2022/12/21 07:00:42;;;;;;;41.47;38.37;;;8.80;99.90;;;;;;6209697;23;20416;-80
2022/12/21 07:03:08;;;;;;;40.97;37.97;;;8.80;99.90;;;;;;6210057;23;20416;-80
2022/12/21 07:05:35;;;;;;;41.10;38.30;;;8.90;99.90;;;;;;6210203;23;20404;-76
2022/12/21 07:08:02;;;;;;;41.10;38.30;;;8.90;99.90;;;;;;6210033;23;20405;-75
2022/12/21 07:10:30;;;;;;;42.50;39.50;;;9.00;99.90;;;;;;6209555;23;20404;-78
2022/12/21 07:12:57;;;;;;;40.70;37.73;;;9.00;99.90;;;;;;6211628;23;20459;-75
2022/12/21 07:15:23;;;;;;;41.87;38.67;;;9.00;99.90;;;;;;6209891;23;20796;-76
2022/12/21 07:17:50;;;;;;;41.13;37.90;;;9.10;99.90;;;;;;6210062;23;20517;-75
2022/12/21 07:20:17;;;;;;;39.50;36.80;;;9.20;99.90;;;;;;6210186;23;20405;-75
2022/12/21 07:22:43;;;;;;;40.53;37.50;;;9.30;99.90;;;;;;6209993;23;20427;-76
2022/12/21 07:25:10;;;;;;;40.90;37.80;;;9.30;99.90;;;;;;6210054;23;20415;-77
2022/12/21 07:27:38;;;;;;;41.20;38.03;;;9.30;99.90;;;;;;6210336;23;20427;-79
2022/12/21 07:30:06;;;;;;;40.20;37.10;;;9.30;99.90;;;;;;6211887;23;20793;-76
2022/12/21 07:32:33;;;;;;;40.57;37.20;;;9.30;99.90;;;;;;6211103;23;20427;-77
2022/12/21 07:35:00;;;;;;;40.63;37.83;;;9.40;99.90;;;;;;6210148;23;20435;-78
2022/12/21 07:37:26;;;;;;;38.37;35.57;;;9.40;99.90;;;;;;6211331;23;21179;-77
2022/12/21 07:39:53;;;;;;;37.30;34.80;;;9.50;99.90;;;;;;6209942;23;20444;-78
2022/12/21 07:42:20;;;;;;;37.00;34.20;;;9.60;99.90;;;;;;6210230;23;20405;-77
2022/12/21 07:44:48;;;;;;;39.50;36.40;;;9.60;99.90;;;;;;6212215;23;20752;-76
2022/12/21 07:47:14;;;;;;;38.10;35.53;;;9.60;99.90;;;;;;6210332;23;20437;-76
2022/12/21 07:49:41;;;;;;;37.27;34.73;;;9.60;99.90;;;;;;6209785;23;20504;-76
2022/12/21 07:52:08;;;;;;;38.87;35.90;;;9.70;99.90;;;;;;6210106;23;20416;-77
2022/12/21 07:54:34;;;;;;;37.60;35.10;;;9.70;99.90;;;;;;6209638;23;20412;-77
2022/12/21 07:57:01;;;;;;;37.97;35.43;;;9.70;99.90;;;;;;6209361;23;20934;-76
2022/12/21 07:59:28;;;;;;;36.57;33.90;;;9.70;99.90;;;;;;6209309;23;20744;-77
2022/12/21 08:01:56;;;;;;;37.90;35.33;;;9.70;99.90;;;;;;6209681;23;20412;-76
2022/12/21 08:04:22;;;;;;;37.43;34.93;;;9.70;99.90;;;;;;6209663;23;20707;-77
2022/12/21 08:06:50;;;;;;;37.77;35.30;;;9.70;99.90;;;;;;6209794;23;20413;-76
2022/12/21 08:09:16;;;;;;;36.67;34.10;;;9.70;99.90;;;;;;6209634;23;20459;-76
2022/12/21 08:11:43;;;;;;;37.67;35.10;;;9.80;99.90;;;;;;6209282;23;20737;-76
2022/12/21 08:14:10;;;;;;;39.07;36.13;;;9.80;99.90;;;;;;6209316;23;20840;-75
2022/12/21 08:16:36;;;;;;;40.70;37.17;;;9.70;99.90;;;;;;6209665;23;20412;-74
2022/12/21 08:19:04;;;;;;;38.87;36.23;;;9.70;99.90;;;;;;6209299;23;20409;-75
2022/12/21 08:21:31;;;;;;;38.43;35.37;;;9.60;99.90;;;;;;6209679;23;20435;-75
2022/12/21 08:23:58;;;;;;;39.90;36.90;;;9.70;99.90;;;;;;6209053;23;20409;-74
2022/12/21 08:26:24;;;;;;;41.20;37.90;;;9.70;99.90;;;;;;6209029;23;20421;-72
2022/12/21 08:28:51;;;;;;;40.33;37.33;;;9.70;99.90;;;;;;6209285;23;20409;-75
2022/12/21 08:31:20;;;;;;;38.17;35.37;;;9.60;99.90;;;;;;6209934;23;20520;-75
2022/12/21 08:33:47;;;;;;;40.03;37.03;;;9.60;99.90;;;;;;6209443;23;20469;-75
2022/12/21 08:36:17;;;;;;;40.10;37.20;;;9.60;99.90;;;;;;6208879;23;20488;-75
2022/12/21 08:38:44;;;;;;;40.77;37.23;;;9.50;99.90;;;;;;6211142;23;20456;-85
2022/12/21 08:41:11;;;;;;;41.83;38.73;;;9.60;99.90;;;;;;6213402;23;20439;-85
2022/12/21 08:43:39;;;;;;;40.97;38.07;;;9.60;99.90;;;;;;6212790;23;20405;-85
2022/12/21 08:46:08;;;;;;;40.63;37.37;;;9.50;99.90;;;;;;6210798;23;20400;-84
2022/12/21 08:48:36;;;;;;;39.17;36.23;;;9.50;99.90;;;;;;6211252;23;20405;-85
2022/12/21 08:51:04;;;;;;;36.37;33.87;;;9.50;99.90;;;;;;6212245;23;20508;-84
2022/12/21 08:53:32;;;;;;;40.77;37.63;;;9.60;99.90;;;;;;6211452;23;20416;-84
2022/12/21 08:55:59;;;;;;;41.53;38.43;;;9.50;99.90;;;;;;6211330;23;20408;-84
2022/12/21 08:58:25;;;;;;;39.17;36.37;;;9.50;99.90;;;;;;6210805;23;20445;-83
2022/12/21 09:00:53;;;;;;;41.13;37.80;;;9.50;99.90;;;;;;6211016;23;20412;-83
2022/12/21 09:03:19;;;;;;;40.53;37.57;;;9.50;99.90;;;;;;6210960;23;20482;-81
2022/12/21 09:05:46;;;;;;;40.23;37.23;;;9.50;99.90;;;;;;6211278;23;20492;-80
2022/12/21 09:08:14;;;;;;;40.27;37.30;;;9.50;99.90;;;;;;6210745;23;20884;-79
2022/12/21 09:10:42;;;;;;;41.70;38.03;;;9.50;99.90;;;;;;6210312;23;20747;-80
2022/12/21 09:13:08;;;;;;;39.10;36.40;;;9.50;99.90;;;;;;6210769;23;20413;-83
2022/12/21 09:15:41;;;;;;;40.70;37.70;;;9.50;99.90;;;;;;6211624;23;20405;-85
2022/12/21 09:18:08;;;;;;;39.50;36.60;;;9.50;99.90;;;;;;6211198;23;20429;-84
2022/12/21 09:20:35;;;;;;;39.17;35.90;;;9.60;99.90;;;;;;6211163;23;20416;-78
2022/12/21 09:23:01;;;;;;;38.03;35.37;;;9.60;99.90;;;;;;6211000;23;20424;-79
2022/12/21 09:25:28;;;;;;;38.07;35.40;;;9.70;99.90;;;;;;6210529;23;20416;-79
2022/12/21 09:28:00;;;;;;;39.50;36.80;;;9.70;99.90;;;;;;6210424;23;20409;-83
2022/12/21 09:30:27;;;;;;;39.70;37.00;;;9.80;99.90;;;;;;6210952;23;20471;-81
2022/12/21 09:32:54;;;;;;;40.27;37.53;;;9.70;99.90;;;;;;6210169;23;20724;-79
2022/12/21 09:35:21;;;;;;;40.50;37.60;;;9.70;99.90;;;;;;6209509;23;20860;-77
2022/12/21 09:37:48;;;;;;;40.17;37.47;;;9.60;99.90;;;;;;6209760;23;20453;-77
2022/12/21 09:40:18;;;;;;;40.80;37.50;;;9.70;99.90;;;;;;6209564;23;20411;-79
2022/12/21 09:42:55;;;;;;;42.87;39.47;;;9.70;99.90;;;;;;6209486;23;20400;-84
2022/12/21 09:45:26;;;;;;;39.40;36.70;;;9.60;99.90;;;;;;6209446;23;20411;-84
2022/12/21 09:47:58;;;;;;;40.17;37.13;;;9.60;99.90;;;;;;6209395;23;20404;-82
2022/12/21 09:50:27;;;;;;;40.37;37.60;;;9.70;99.90;;;;;;6209431;23;20377;-85
2022/12/21 09:52:59;;;;;;;40.10;37.30;;;9.80;99.90;;;;;;6209689;23;20892;-83
2022/12/21 09:55:30;;;;;;;40.43;37.73;;;9.80;99.90;;;;;;6209852;23;20381;-81
2022/12/21 09:57:59;;;;;;;39.93;37.43;;;9.90;99.90;;;;;;6205501;23;21054;-81
2022/12/21 10:00:33;;;;;;;40.63;38.13;;;9.90;99.90;;;;;;6209213;23;20430;-78
2022/12/21 10:03:17;;;;;;;41.77;39.07;;;9.90;99.90;;;;;;6211237;23;20873;-77
2022/12/21 10:05:57;;;;;;;44.50;40.87;;;9.90;99.90;;;;;;6219115;23;20393;-76
2022/12/21 10:08:44;;;;;;;41.87;38.97;;;9.80;99.90;;;;;;6230226;23;20401;-75
2022/12/21 10:11:24;;;;;;;42.43;39.33;;;9.70;99.90;;;;;;6218564;23;20411;-77
2022/12/21 10:14:02;;;;;;;43.67;40.10;;;9.80;99.90;;;;;;6217616;23;20393;-76
2022/12/21 10:16:36;;;;;;;42.60;39.50;;;9.80;99.90;;;;;;6208874;23;20415;-75
2022/12/21 10:19:14;;;;;;;39.17;36.43;;;9.90;99.90;;;;;;6208801;23;20451;-76
2022/12/21 10:21:50;;;;;;;39.40;36.60;;;10.00;99.90;;;;;;6211682;23;20400;-75
2022/12/21 10:24:23;;;;;;;39.60;37.10;;;10.00;99.90;;;;;;6215755;23;20393;-75
2022/12/21 10:26:53;;;;;;;39.47;36.50;;;10.10;99.90;;;;;;6211549;23;20404;-75
2022/12/21 10:29:26;;;;;;;35.40;33.03;;;10.00;99.90;;;;;;6212277;23;20431;-75
2022/12/21 10:31:55;;;;;;;34.30;32.30;;;10.00;99.90;;;;;;6211463;23;20430;-76
2022/12/21 10:34:25;;;;;;;34.07;32.00;;;10.00;99.90;;;;;;6211861;23;20748;-76
2022/12/21 10:36:56;;;;;;;32.40;30.50;;;10.10;99.90;;;;;;6213446;23;20444;-75
2022/12/21 10:39:23;;;;;;;30.97;28.90;;;10.20;99.90;;;;;;6210742;23;20475;-76
2022/12/21 10:41:59;;;;;;;30.20;28.60;;;10.40;99.90;;;;;;6211837;23;20413;-75
2022/12/21 10:44:26;;;;;;;27.70;26.20;;;10.50;99.90;;;;;;6211445;23;20385;-75
2022/12/21 10:46:54;;;;;;;26.63;25.17;;;10.60;99.90;;;;;;6211549;23;20449;-77
2022/12/21 10:49:27;;;;;;;24.07;22.87;;;10.80;99.90;;;;;;6211372;23;20411;-75
2022/12/21 10:51:54;;;;;;;25.10;23.90;;;11.00;99.90;;;;;;6211213;23;20712;-75
2022/12/21 10:54:26;;;;;;;20.53;19.63;;;11.20;99.90;;;;;;6211611;23;20413;-75
2022/12/21 10:56:53;;;;;;;21.27;20.37;;;11.40;99.90;;;;;;6213011;23;20470;-75
2022/12/21 10:59:24;;;;;;;20.00;18.80;;;11.50;99.90;;;;;;6227608;23;20456;-76
2022/12/21 11:01:52;;;;;;;17.50;16.73;;;11.80;99.90;;;;;;6217459;23;20401;-75
2022/12/21 11:04:28;;;;;;;16.80;15.93;;;11.80;99.90;;;;;;6215420;23;20416;-75
2022/12/21 11:06:57;;;;;;;16.40;15.60;;;12.00;99.90;;;;;;6211488;23;20392;-74
2022/12/21 11:09:39;;;;;;;13.90;13.27;;;12.20;99.90;;;;;;6211068;23;20400;-74
2022/12/21 11:12:15;;;;;;;13.20;12.60;;;12.30;99.90;;;;;;6213898;23;20392;-75
2022/12/21 11:14:42;;;;;;;13.47;12.87;;;12.40;99.90;;;;;;6211153;23;20401;-76
2022/12/21 11:17:16;;;;;;;14.33;13.73;;;12.40;99.90;;;;;;6211057;23;20415;-76
2022/12/21 11:19:45;;;;;;;13.10;12.60;;;12.40;99.90;;;;;;6210894;23;20389;-76
2022/12/21 11:22:15;;;;;;;12.70;11.80;;;12.50;99.90;;;;;;6210944;23;20546;-76
2022/12/21 11:24:44;;;;;;;14.50;13.80;;;12.60;99.90;;;;;;6211689;23;20808;-76
2022/12/21 11:27:23;;;;;;;15.30;14.30;;;12.60;99.90;;;;;;6211343;23;20478;-76
2022/12/21 11:29:52;;;;;;;12.87;12.40;;;12.70;99.90;;;;;;6211510;23;20399;-76
2022/12/21 11:32:21;;;;;;;11.50;10.63;;;13.20;99.90;;;;;;6211507;23;20409;-76
2022/12/21 11:34:52;;;;;;;11.07;10.67;;;13.40;99.90;;;;;;6210963;23;20876;-75
2022/12/21 11:37:25;;;;;;;11.23;10.83;;;13.70;99.90;;;;;;6211526;23;20425;-75
2022/12/21 11:39:52;;;;;;;12.40;11.73;;;14.30;99.90;;;;;;6202486;23;20543;-78
2022/12/21 11:42:21;;;;;;;12.13;11.63;;;14.50;99.90;;;;;;6220216;23;20412;-75
2022/12/21 11:44:49;;;;;;;11.93;11.43;;;14.20;99.90;;;;;;6212911;23;20409;-76
2022/12/21 11:47:29;;;;;;;12.67;11.77;;;13.90;99.90;;;;;;6209886;23;20404;-77
2022/12/21 11:53:32;;;;;;;11.87;11.43;;;13.60;99.90;;;;;;6207504;23;20361;-77
2022/12/21 11:56:11;;;;;;;12.90;12.20;;;14.60;99.90;;;;;;6210466;23;20393;-76
2022/12/21 11:58:59;;;;;;;13.40;12.70;;;15.40;99.90;;;;;;6211008;23;20790;-77
2022/12/21 12:01:42;;;;;;;13.77;13.20;;;15.80;99.90;;;;;;6210665;23;20393;-77
2022/12/21 12:04:29;;;;;;;13.20;12.70;;;15.90;99.90;;;;;;6211054;23;20453;-77
2022/12/21 12:07:31;;;;;;;13.57;13.07;;;15.60;99.90;;;;;;6210753;23;20393;-77
2022/12/21 12:10:34;;;;;;;13.40;12.90;;;14.90;99.90;;;;;;6210900;23;20423;-77
2022/12/21 12:13:08;;;;;;;14.30;13.70;;;14.30;99.90;;;;;;6212478;23;20491;-77
2022/12/21 12:15:43;;;;;;;15.00;14.40;;;14.00;99.90;;;;;;6213415;23;20717;-77
2022/12/21 12:18:24;;;;;;;15.97;15.30;;;13.80;99.90;;;;;;6212771;23;20486;-79
2022/12/21 12:21:07;;;;;;;13.40;12.90;;;13.80;99.90;;;;;;6213314;23;20420;-80
2022/12/21 12:23:42;;;;;;;14.10;13.40;;;14.10;99.90;;;;;;6213127;23;20707;-79
2022/12/21 12:26:16;;;;;;;13.10;12.60;;;14.70;99.90;;;;;;6212782;23;20392;-79
2022/12/21 12:29:06;;;;;;;12.93;12.40;;;15.30;99.90;;;;;;6212515;23;20420;-79
2022/12/21 12:31:50;;;;;;;13.17;12.67;;;15.80;99.90;;;;;;6213257;23;20393;-80
2022/12/21 12:34:40;;;;;;;12.67;12.23;;;16.00;99.90;;;;;;6213064;23;20392;-79
2022/12/21 12:37:19;;;;;;;12.20;11.80;;;16.00;99.90;;;;;;6212605;23;20446;-77
2022/12/21 12:39:54;;;;;;;13.23;12.53;;;16.20;99.90;;;;;;6212098;23;20448;-77
2022/12/21 12:42:27;;;;;;;15.10;14.40;;;15.60;99.90;;;;;;6213045;23;20401;-77
2022/12/21 12:45:08;;;;;;;15.17;14.47;;;15.00;99.90;;;;;;6212691;23;20396;-77
2022/12/21 12:47:42;;;;;;;15.40;14.70;;;14.60;99.90;;;;;;6213156;23;20397;-76
2022/12/21 12:50:28;;;;;;;13.03;12.50;;;14.40;99.90;;;;;;6212541;23;20393;-77
2022/12/21 12:53:10;;;;;;;14.63;13.90;;;14.30;99.90;;;;;;6211669;23;20412;-76
2022/12/21 12:55:47;;;;;;;13.80;13.20;;;14.10;99.90;;;;;;6212729;23;20389;-76
2022/12/21 12:58:23;;;;;;;13.10;12.60;;;13.90;99.90;;;;;;6212305;23;20440;-76
2022/12/21 13:00:56;;;;;;;12.13;11.67;;;13.90;99.90;;;;;;6206016;23;20492;-76
2022/12/21 13:03:38;;;;;;;14.07;13.57;;;14.00;99.90;;;;;;6211696;23;20405;-76
2022/12/21 13:06:16;;;;;;;13.37;12.87;;;14.10;99.90;;;;;;6212466;23;20397;-76